Airfield :







YOU CAN JOIN US ON...

 
LOGIN :

Register | Disclaimer

   EN    FR    IT 

 









Legend :    VFR   Marginal VFR   IFR   Intensive IFR   Very Intensive IFR
Visi :
Ceiling :
>= 8 km
>= 3000ft
5 to 8 km
1000 to 3000 ft
1500m to 5 km
500 to 1000 ft
800 to 1500m
200 to 500 ft
< 800m
< 200 ft
Symbols :   Thunderstorms  Fog  Heavy snow  Heavy precipitations  Wind > 20 kt






- Airport Elevation : 352 ft


KAUG - Augusta State

CURRENT METAR :
  • 080553Z AUTO 00000KT 10SM FEW008 M01/M03 A2968 RMK AO2 SLP053 T10061028 10072 21006 57014

EXPIRED METARs :
  • 080531Z AUTO 35003KT 10SM SCT008 01/M02 A2968 RMK AO2 T00061017
  • 080453Z AUTO 00000KT 10SM CLR 01/M02 A2970 RMK AO2 SLP058 T00111017 401390006
  • 080353Z AUTO 11003KT 10SM CLR 02/M01 A2971 RMK AO2 SLP062 T00221011

TAF KAUG
Valid from the 08 at 06:00 until the 09 at 06:00 UTC


080520Z 0806/0906 02004KT P6SM SCT250



MET'MAP, your aeronautical weather chart ! - Copyright ORBIFLY December 2007 - Disclaimer

ORBIFLY MET'MAP TEAM :

Programming & Development : Alexandra Zaïnal
Concept & original design : Baudouin d'Aumeries
Assistance for programming : Marc-Olivier Méhu
Technical & hardware support : Manuel Goepfert

Contact : metmap@orbifly.com




SOURCES & CREDITS :

   NOAA